Flight Track Log - Related Links

Times and Time Zones

All times are in EDT time to prevent confusion due to time zone crossing. See the EGF3418 flight status page for this flight to view local times or setup timezone preferences in your user account.

Time Position Orientation Groundspeed Altitude Reporting Facility
EDT Latitude Longitude Course Direction KTS MPH feet Rate Location/Type
Sun 03:56:17 PM 32.8500 -97.0500 308° West 182 209 2,500  Level Dallas / Fort Worth TRACON
Sun 03:57:18 PM 32.8000 -97.0667 196° South 239 275 4,300 2,139 Climbing Dallas / Fort Worth TRACON
Sun 03:58:00 PM 32.7634 -97.2139 281° West  Level FlightAware Approximate
Sun 03:58:12 PM 32.7667 -97.1333 239° Southwest 259 298 6,600  Level Dallas / Fort Worth TRACON
Sun 03:59:00 PM 32.8073 -97.2983 307° West  Level FlightAware Approximate
Sun 03:59:06 PM 32.7686 -97.2256 271° West 278 320 8,400  Level Fort Worth Center
Sun 04:00:00 PM 32.8582 -97.3789 308° West  Level FlightAware Approximate
Sun 04:00:06 PM 32.7978 -97.2872 299° West 273 314 10,700  Level Fort Worth Center
Sun 04:01:00 PM 32.9109 -97.4579 308° West  Level FlightAware Approximate
Sun 04:01:06 PM 32.8542 -97.3739 308° West 285 328 12,200  Level Fort Worth Center
Sun 04:02:06 PM 32.9022 -97.4456 309° West 306 352 13,700 1,100 Climbing Fort Worth Center
Sun 04:03:06 PM 32.9647 -97.5422 308° West 326 375 14,400 1,100 Climbing Fort Worth Center
Sun 04:04:06 PM 33.0211 -97.6289 308° West 338 389 15,900 1,400 Climbing Fort Worth Center
Sun 04:05:06 PM 33.0753 -97.7083 309° West 344 396 17,200 1,350 Climbing Fort Worth Center
Sun 04:06:06 PM 33.1186 -97.8178 295° West 332 382 18,600 1,350 Climbing Fort Worth Center
Sun 04:07:06 PM 33.1475 -97.9097 291° West 332 382 19,900 1,450 Climbing Fort Worth Center
Sun 04:08:06 PM 33.1825 -98.0217 291° West 327 376 21,500 1,500 Climbing Fort Worth Center
Sun 04:09:06 PM 33.2114 -98.1161 290° West 327 376 22,900 1,400 Climbing Fort Worth Center
Sun 04:10:06 PM 33.2461 -98.2183 292° West 332 382 24,300 1,450 Climbing Fort Worth Center
Sun 04:11:06 PM 33.2767 -98.3278 288° West 327 376 25,800 1,500 Climbing Fort Worth Center
Sun 04:12:06 PM 33.3072 -98.4200 292° West 317 365 27,300 1,450 Climbing Fort Worth Center
Sun 04:13:06 PM 33.3336 -98.5125 289° West 303 349 28,700 1,450 Climbing Fort Worth Center
Sun 04:14:06 PM 33.3642 -98.5997 293° West 298 343 30,200 1,400 Climbing Fort Worth Center
Sun 04:15:06 PM 33.3925 -98.6897 291° West 291 335 31,500 900 Climbing Fort Worth Center
Sun 04:16:06 PM 33.4186 -98.7797 289° West 286 329 32,000 250 Climbing Fort Worth Center
Sun 04:17:06 PM 33.4489 -98.8822 290° West 308 354 32,000  Level Fort Worth Center
Sun 04:18:06 PM 33.4808 -98.9900 290° West 325 374 32,000  Level Fort Worth Center
Sun 04:19:06 PM 33.5169 -99.1053 291° West 355 409 32,000  Level Fort Worth Center
Sun 04:20:06 PM 33.5528 -99.2231 290° West 369 425 32,000  Level Fort Worth Center
Sun 04:21:06 PM 33.5867 -99.3383 289° West 369 425 32,000  Level Fort Worth Center
Sun 04:22:06 PM 33.6225 -99.4464 292° West 364 419 32,000  Level Fort Worth Center
Sun 04:23:06 PM 33.6878 -99.5353 311° West 345 397 32,000  Level Fort Worth Center
Sun 04:24:06 PM 33.7531 -99.6219 312° West 350 403 32,000  Level Fort Worth Center
Sun 04:25:06 PM 33.8164 -99.7083 311° West 350 403 32,000  Level Fort Worth Center
Sun 04:26:06 PM 33.8836 -99.7953 313° West 350 403 32,000  Level Fort Worth Center
Sun 04:27:06 PM 33.9506 -99.8897 311° West 356 410 32,000  Level Fort Worth Center
Sun 04:28:06 PM 34.0175 -99.9794 312° West 356 410 32,000  Level Fort Worth Center
Sun 04:29:06 PM 34.0864 -100.0767 311° West 361 415 32,000  Level Fort Worth Center
Sun 04:30:06 PM 34.1533 -100.1667 312° West 367 422 32,000  Level Fort Worth Center
Sun 04:31:06 PM 34.2222 -100.2617 311° West 367 422 32,000  Level Fort Worth Center
Sun 04:32:46 PM 34.3228 -100.4025 311° West 374 430 32,000  Level Albuquerque Center
Sun 04:33:48 PM 34.4050 -100.5167 311° West 376 433 32,000 -532 Level Albuquerque Center
Sun 04:34:50 PM 34.4717 -100.6103 311° West 372 428 30,900 -1,742 Descending Albuquerque Center
Sun 04:35:52 PM 34.5389 -100.7019 312° West 367 422 28,400 -2,419 Descending Albuquerque Center
Sun 04:36:54 PM 34.6072 -100.7986 311° West 371 427 25,900 -2,661 Descending Albuquerque Center
Sun 04:37:56 PM 34.6797 -100.9017 311° West 391 450 22,900 -2,903 Descending Albuquerque Center
Sun 04:38:58 PM 34.7494 -101.0000 311° West 389 448 19,900 -3,168 Descending Albuquerque Center
Sun 04:40:01 PM 34.8261 -101.1203 308° West 378 435 16,300 -3,168 Descending Albuquerque Center
Sun 04:41:03 PM 34.8731 -101.2261 298° West 360 414 13,300 -2,758 Descending Albuquerque Center
Sun 04:42:05 PM 34.9208 -101.3294 299° West 352 405 10,600 -1,694 Descending Albuquerque Center
Sun 04:43:07 PM 34.9639 -101.4186 301° West 323 372 9,800 -871 Descending Albuquerque Center
Sun 04:44:09 PM 35.0033 -101.5008 300° West 295 339 8,800 -968 Descending Albuquerque Center
Sun 04:45:11 PM 35.0422 -101.5842 300° West 285 328 7,800 -1,016 Descending Albuquerque Center
Sun 04:46:13 PM 35.0878 -101.6811 300° West 278 320 6,700 -1,065 Descending Albuquerque Center
Sun 04:47:15 PM 35.1239 -101.7575 300° West 266 306 5,600 -1,065 Descending Albuquerque Center
Sun 04:48:17 PM 35.1722 -101.7750 344° North 217 250 4,500 -919 Descending Albuquerque Center
Sun 04:49:19 PM 35.2042 -101.7339 46° Northeast 182 209 3,700 -774 Descending Albuquerque Center

Login

Don't have an account? Register now (free) for customized features, flight alerts, and more!